Time;durP1;ratioP1;P1;durP2;ratioP2;P2;SDS_P1;SDS_P2;PMS_P1;PMS_P2;Temp;Humidity;BMP_temperature;BMP_pressure;BME280_temperature;BME280_humidity;BME280_pressure;Samples;Min_cycle;Max_cycle;Signal;HPM_P1;HPM_P2
2022/03/04 00:00:17;;;;;;;76.63;45.17;;;;;;;-0.74;100.00;99114.91;2065295;28;20193;-76
2022/03/04 00:01:22;;;;;;;78.03;43.47;;;;;;;-0.77;100.00;99120.59;2065854;28;20199;-75
2022/03/04 00:02:25;;;;;;;73.05;43.15;;;;;;;-0.72;100.00;99118.09;2065431;28;20251;-76
2022/03/04 00:03:28;;;;;;;77.72;44.63;;;;;;;-0.77;100.00;99117.19;2065269;28;20259;-76
2022/03/04 00:04:30;;;;;;;79.32;43.72;;;;;;;-0.76;100.00;99124.03;2065555;28;20300;-76
2022/03/04 00:05:33;;;;;;;82.15;45.45;;;;;;;-0.78;100.00;99120.81;2065221;28;20197;-76
2022/03/04 00:06:34;;;;;;;71.22;44.55;;;;;;;-0.81;100.00;99116.81;2064804;28;20236;-75
2022/03/04 00:07:36;;;;;;;76.97;44.65;;;;;;;-0.82;100.00;99115.22;2065461;28;20193;-76
2022/03/04 00:08:37;;;;;;;83.60;46.42;;;;;;;-0.79;100.00;99120.00;2065004;28;20264;-76
2022/03/04 00:09:42;;;;;;;75.03;44.22;;;;;;;-0.83;100.00;99105.75;2065152;28;20292;-76
2022/03/04 00:10:46;;;;;;;75.63;44.00;;;;;;;-0.84;100.00;99112.03;2065257;28;20231;-75
2022/03/04 00:11:50;;;;;;;78.70;45.25;;;;;;;-0.83;100.00;99116.25;2065856;28;20189;-75
2022/03/04 00:12:53;;;;;;;75.75;44.55;;;;;;;-0.82;100.00;99114.41;2065296;28;20209;-76
2022/03/04 00:13:57;;;;;;;80.45;46.55;;;;;;;-0.86;100.00;99108.84;2065222;28;20196;-75
2022/03/04 00:15:02;;;;;;;80.18;44.42;;;;;;;-0.81;100.00;99116.81;2065848;28;20184;-75
2022/03/04 00:16:06;;;;;;;75.18;43.85;;;;;;;-0.74;100.00;99107.06;2064978;28;20204;-75
2022/03/04 00:17:11;;;;;;;76.50;44.25;;;;;;;-0.71;100.00;99106.59;2065159;28;20220;-76
2022/03/04 00:18:15;;;;;;;78.45;45.30;;;;;;;-0.75;100.00;99110.69;2065733;28;20208;-75
2022/03/04 00:19:17;;;;;;;74.20;42.65;;;;;;;-0.75;100.00;99110.69;2066033;28;20226;-75
2022/03/04 00:20:19;;;;;;;77.32;44.60;;;;;;;-0.78;100.00;99110.31;2065095;28;20204;-77
2022/03/04 00:21:21;;;;;;;81.35;44.03;;;;;;;-0.74;100.00;99104.44;2064749;28;20229;-76
2022/03/04 00:22:25;;;;;;;76.35;43.70;;;;;;;-0.76;100.00;99109.09;2065899;28;20196;-75
2022/03/04 00:23:28;;;;;;;79.78;43.17;;;;;;;-0.74;100.00;99112.28;2065771;28;20204;-75
2022/03/04 00:24:31;;;;;;;72.43;41.47;;;;;;;-0.75;100.00;99110.69;2065822;28;20217;-75
2022/03/04 00:25:32;;;;;;;77.05;42.80;;;;;;;-0.76;100.00;99108.31;2065731;28;20200;-75
2022/03/04 00:26:35;;;;;;;70.28;41.92;;;;;;;-0.77;100.00;99107.50;2065080;28;20201;-75
2022/03/04 00:27:36;;;;;;;66.55;42.47;;;;;;;-0.79;100.00;99106.91;2065299;28;20193;-75
2022/03/04 00:28:39;;;;;;;72.97;41.22;;;;;;;-0.83;100.00;99105.75;2065736;28;20735;-76
2022/03/04 00:29:41;;;;;;;71.00;42.63;;;;;;;-0.84;100.00;99112.03;2065780;28;20659;-75
2022/03/04 00:30:44;;;;;;;71.75;41.65;;;;;;;-0.83;100.00;99118.06;2065437;28;20664;-77
2022/03/04 00:31:46;;;;;;;69.13;40.47;;;;;;;-0.86;100.00;99111.44;2057362;28;20573;-75
2022/03/04 00:32:48;;;;;;;78.43;43.03;;;;;;;-0.88;100.00;99111.66;2065320;28;20185;-75
2022/03/04 00:33:52;;;;;;;76.63;42.45;;;;;;;-0.84;100.00;99104.16;2065914;28;20217;-76
2022/03/04 00:34:53;;;;;;;72.43;42.50;;;;;;;-0.86;100.00;99103.59;2065081;28;20714;-75
2022/03/04 00:35:56;;;;;;;70.67;42.00;;;;;;;-0.86;100.00;99106.22;2064827;28;20608;-75
2022/03/04 00:36:57;;;;;;;68.10;41.30;;;;;;;-0.87;100.00;99107.22;2065455;28;20569;-75
2022/03/04 00:38:00;;;;;;;71.60;42.95;;;;;;;-0.88;100.00;99103.78;2065132;28;20587;-75
2022/03/04 00:39:02;;;;;;;70.03;41.60;;;;;;;-0.88;100.00;99110.84;2081208;28;20241;-75
2022/03/04 00:40:06;;;;;;;76.72;43.25;;;;;;;-0.91;100.00;99101.63;2081405;28;20180;-76
2022/03/04 00:41:08;;;;;;;69.97;40.90;;;;;;;-0.91;100.00;99103.44;2081980;28;20192;-76
2022/03/04 00:42:13;;;;;;;72.15;41.03;;;;;;;-0.91;100.00;99100.81;2082203;28;20180;-76
2022/03/04 00:43:14;;;;;;;75.95;42.53;;;;;;;-0.90;100.00;99097.97;2081171;28;20199;-76
2022/03/04 00:44:17;;;;;;;75.85;41.58;;;;;;;-0.89;100.00;99104.00;2081330;28;20195;-75
2022/03/04 00:45:20;;;;;;;64.82;39.28;;;;;;;-0.89;100.00;99094.34;2081504;28;20678;-76
2022/03/04 00:46:22;;;;;;;64.75;38.92;;;;;;;-0.88;100.00;99103.00;2089417;28;20203;-75
2022/03/04 00:47:25;;;;;;;65.05;40.72;;;;;;;-0.87;100.00;99096.72;2081241;28;20291;-76
2022/03/04 00:48:29;;;;;;;66.43;39.83;;;;;;;-0.86;100.00;99099.16;2081320;28;20207;-75
2022/03/04 00:49:31;;;;;;;62.60;38.53;;;;;;;-0.78;100.00;99095.44;2082009;28;20677;-75
2022/03/04 00:50:33;;;;;;;69.90;40.47;;;;;;;-0.77;100.00;99091.78;2089432;28;20207;-75
2022/03/04 00:51:34;;;;;;;66.00;39.10;;;;;;;-0.79;100.00;99098.25;2080877;28;20737;-75
2022/03/04 00:52:38;;;;;;;70.20;40.65;;;;;;;-0.78;100.00;99094.59;2081551;28;20188;-75
2022/03/04 00:53:41;;;;;;;64.10;39.97;;;;;;;-0.79;100.00;99098.25;2081660;28;20211;-75
2022/03/04 00:54:43;;;;;;;65.72;40.90;;;;;;;-0.81;100.00;99101.09;2081496;28;20704;-75
2022/03/04 00:55:44;;;;;;;73.28;40.45;;;;;;;-0.83;100.00;99092.66;2081924;28;20684;-75
2022/03/04 00:56:47;;;;;;;66.53;41.38;;;;;;;-0.81;100.00;99093.25;2083414;28;20619;-75
2022/03/04 00:57:48;;;;;;;68.05;41.33;;;;;;;-0.82;100.00;99088.22;2083662;28;20278;-75
2022/03/04 00:58:51;;;;;;;71.88;41.72;;;;;;;-0.78;100.00;99099.84;2090897;28;20210;-75
2022/03/04 00:59:52;;;;;;;69.20;41.22;;;;;;;-0.81;100.00;99090.63;2082675;28;20203;-75
2022/03/04 01:00:56;;;;;;;66.68;40.65;;;;;;;-0.80;100.00;99097.47;2082803;28;20283;-75
2022/03/04 01:01:57;;;;;;;68.15;40.38;;;;;;;-0.78;100.00;99099.84;2082957;28;20744;-75
2022/03/04 01:03:00;;;;;;;63.88;37.85;;;;;;;-0.80;100.00;99104.50;2082802;28;20191;-75
2022/03/04 01:04:03;;;;;;;61.97;36.97;;;;;;;-0.73;100.00;99095.56;2083427;28;20198;-76
2022/03/04 01:05:05;;;;;;;48.97;33.08;;;;;;;-0.72;100.00;99094.53;2083402;28;20200;-75
2022/03/04 01:06:08;;;;;;;59.45;35.65;;;;;;;-0.73;100.00;99092.13;2082865;28;20279;-76
2022/03/04 01:07:09;;;;;;;54.17;35.35;;;;;;;-0.74;100.00;99099.19;2083626;28;20623;-76
2022/03/04 01:08:12;;;;;;;52.85;33.45;;;;;;;-0.70;100.00;99100.34;2083524;28;20238;-76
2022/03/04 01:09:13;;;;;;;48.10;32.92;;;;;;;-0.68;100.00;99106.19;2083016;28;20208;-76
2022/03/04 01:10:16;;;;;;;46.33;29.95;;;;;;;-0.64;100.00;99107.31;2082897;28;20194;-75
2022/03/04 01:11:19;;;;;;;39.67;28.65;;;;;;;-0.66;100.00;99106.75;2083399;28;20658;-75
2022/03/04 01:12:22;;;;;;;45.88;30.67;;;;;;;-0.64;100.00;99101.28;2083356;28;20198;-75
2022/03/04 01:13:23;;;;;;;43.60;29.35;;;;;;;-0.69;100.00;99094.09;2082930;28;20266;-75
2022/03/04 01:14:26;;;;;;;43.47;29.90;;;;;;;-0.72;100.00;99094.53;2082861;28;20192;-76
2022/03/04 01:15:27;;;;;;;45.33;30.42;;;;;;;-0.69;100.00;99094.09;2083283;28;20231;-75
2022/03/04 01:16:33;;;;;;;46.33;30.42;;;;;;;-0.78;100.00;99086.75;2083327;28;20184;-76
2022/03/04 01:17:35;;;;;;;46.60;30.92;;;;;;;-0.83;100.00;99090.06;2083331;28;20253;-76
2022/03/04 01:18:37;;;;;;;45.60;30.33;;;;;;;-0.82;100.00;99089.03;2083277;28;20184;-76
2022/03/04 01:19:38;;;;;;;45.67;30.00;;;;;;;-0.82;100.00;99089.03;2083316;28;20279;-76
2022/03/04 01:20:41;;;;;;;42.20;29.83;;;;;;;-0.84;100.00;99085.84;2083271;28;20654;-75
2022/03/04 01:21:43;;;;;;;41.80;29.83;;;;;;;-0.84;100.00;99085.84;2082944;28;20245;-75
2022/03/04 01:22:45;;;;;;;43.67;28.70;;;;;;;-0.83;100.00;99089.25;2083208;28;20210;-76
2022/03/04 01:23:47;;;;;;;44.90;28.83;;;;;;;-0.86;100.00;99093.91;2083269;28;20192;-76
2022/03/04 01:24:49;;;;;;;38.85;28.05;;;;;;;-0.84;100.00;99090.28;2083218;28;20646;-76
2022/03/04 01:25:55;;;;;;;42.60;29.35;;;;;;;-0.90;100.00;99089.31;2083441;28;20661;-76
2022/03/04 01:27:01;;;;;;;44.85;29.48;;;;;;;-0.87;100.00;99091.50;2083314;28;20183;-76
2022/03/04 01:28:02;;;;;;;49.38;30.05;;;;;;;-0.87;100.00;99091.50;2082849;28;20207;-76
2022/03/04 01:29:07;;;;;;;47.90;30.50;;;;;;;-0.88;100.00;99082.84;2074920;28;20677;-76
2022/03/04 01:30:11;;;;;;;41.63;29.77;;;;;;;-0.90;100.00;99076.22;2082496;28;20206;-76
2022/03/04 01:31:15;;;;;;;43.70;28.85;;;;;;;-0.90;100.00;99079.66;2082469;28;20209;-76
2022/03/04 01:32:19;;;;;;;42.05;29.02;;;;;;;-0.89;100.00;99080.44;2082642;28;20191;-76
2022/03/04 01:33:21;;;;;;;44.45;30.30;;;;;;;-0.90;100.00;99086.72;2083138;28;20203;-76
2022/03/04 01:34:24;;;;;;;47.53;29.90;;;;;;;-0.93;100.00;99077.47;2082526;28;20231;-76
2022/03/04 01:35:29;;;;;;;45.38;28.95;;;;;;;-0.92;100.00;99076.47;2082678;28;20188;-75
2022/03/04 01:36:33;;;;;;;42.72;29.77;;;;;;;-0.93;100.00;99077.47;2082342;28;20215;-75
2022/03/04 01:37:35;;;;;;;44.22;29.65;;;;;;;-0.92;100.00;99088.75;2082565;28;20183;-76
2022/03/04 01:38:37;;;;;;;44.20;30.15;;;;;;;-0.92;100.00;99086.13;2082992;28;20589;-76
2022/03/04 01:39:40;;;;;;;42.55;30.13;;;;;;;-0.91;100.00;99091.16;2082433;28;20196;-76
2022/03/04 01:40:43;;;;;;;46.15;30.13;;;;;;;-0.95;100.00;99084.78;2082632;28;20592;-75
2022/03/04 01:41:48;;;;;;;48.22;31.00;;;;;;;-0.91;100.00;99091.16;2083134;28;20187;-76
2022/03/04 01:42:56;;;;;;;45.58;30.92;;;;;;;-0.91;100.00;99085.13;2082356;28;20712;-75
2022/03/04 01:44:01;;;;;;;47.38;30.27;;;;;;;-0.93;100.00;99077.47;2075738;28;20270;-76
2022/03/04 01:45:09;;;;;;;47.38;31.20;;;;;;;-0.93;100.00;99074.88;2074977;28;20212;-75
2022/03/04 01:46:14;;;;;;;43.58;30.45;;;;;;;-0.92;100.00;99083.53;2082741;28;20188;-76
2022/03/04 01:47:17;;;;;;;44.58;30.27;;;;;;;-0.94;100.00;99086.38;2082358;28;20223;-75
2022/03/04 01:48:25;;;;;;;49.95;32.22;;;;;;;-0.93;100.00;99092.41;2082741;28;20183;-76
2022/03/04 01:49:27;;;;;;;45.58;29.73;;;;;;;-0.95;100.00;99087.38;2082692;28;20211;-75
2022/03/04 01:50:32;;;;;;;47.70;31.77;;;;;;;-0.95;100.00;99084.78;2082604;28;20179;-75
2022/03/04 01:51:34;;;;;;;45.65;30.73;;;;;;;-0.95;100.00;99083.97;2082770;28;20242;-75
2022/03/04 01:52:38;;;;;;;48.42;31.02;;;;;;;-0.93;100.00;99076.69;2083042;28;20723;-75
2022/03/04 01:53:42;;;;;;;45.58;30.65;;;;;;;-0.94;100.00;99080.31;2083075;28;20219;-75
2022/03/04 01:54:45;;;;;;;48.22;31.15;;;;;;;-0.95;100.00;99079.53;2082258;28;20245;-76
2022/03/04 01:55:50;;;;;;;45.08;30.40;;;;;;;-0.95;100.00;99079.53;2074706;28;20235;-75
2022/03/04 01:56:51;;;;;;;48.15;31.33;;;;;;;-0.94;100.00;99080.31;2074749;28;20201;-75
2022/03/04 01:57:55;;;;;;;45.83;30.30;;;;;;;-0.96;100.00;99072.66;2082622;28;20184;-76
2022/03/04 01:58:57;;;;;;;45.08;30.85;;;;;;;-0.95;100.00;99083.97;2083002;28;20279;-75
2022/03/04 02:00:01;;;;;;;42.67;30.80;;;;;;;-0.93;100.00;99081.91;2082479;28;20192;-75
2022/03/04 02:01:15;;;;;;;45.35;30.42;;;;;;;-0.91;100.00;99090.34;2082569;28;20176;-75
2022/03/04 02:02:18;;;;;;;44.80;31.50;;;;;;;-0.94;100.00;99075.09;2082520;28;20203;-76
2022/03/04 02:03:25;;;;;;;47.10;30.85;;;;;;;-0.96;100.00;99071.88;2082302;28;20200;-76
2022/03/04 02:04:29;;;;;;;49.58;32.08;;;;;;;-0.96;100.00;99077.91;2083094;28;20529;-76
2022/03/04 02:05:32;;;;;;;45.92;31.35;;;;;;;-0.97;100.00;99071.06;2083149;28;20227;-75
2022/03/04 02:06:36;;;;;;;45.30;30.92;;;;;;;-0.94;100.00;99072.47;2082600;28;20221;-75
2022/03/04 02:07:38;;;;;;;43.30;29.63;;;;;;;-0.91;100.00;99069.41;2081281;28;20219;-75
2022/03/04 02:08:46;;;;;;;48.72;30.90;;;;;;;-0.89;100.00;99072.59;2082095;28;20758;-75
2022/03/04 02:09:47;;;;;;;46.42;29.58;;;;;;;-0.88;100.00;99071.56;2083193;28;20568;-75
2022/03/04 02:10:55;;;;;;;43.83;29.55;;;;;;;-0.89;100.00;99068.16;2082922;28;20536;-75
2022/03/04 02:11:57;;;;;;;45.08;30.55;;;;;;;-0.89;100.00;99072.59;2082546;28;20296;-75
2022/03/04 02:13:01;;;;;;;41.58;29.80;;;;;;;-0.88;100.00;99071.56;2082303;28;20196;-76
2022/03/04 02:14:02;;;;;;;45.25;29.77;;;;;;;-0.89;100.00;99073.38;2082878;28;20249;-76
2022/03/04 02:15:07;;;;;;;43.30;29.05;;;;;;;-0.88;100.00;99074.19;2082815;28;20218;-76
2022/03/04 02:16:18;;;;;;;44.30;31.25;;;;;;;-0.87;100.00;99073.16;2082149;28;20253;-76
2022/03/04 02:17:23;;;;;;;50.67;30.90;;;;;;;-0.86;100.00;99078.22;2082548;28;20238;-76
2022/03/04 02:18:28;;;;;;;43.13;30.70;;;;;;;-0.85;100.00;99073.75;2082893;28;20168;-75
2022/03/04 02:19:32;;;;;;;43.85;30.23;;;;;;;-0.86;100.00;99082.66;2090220;28;20199;-75
2022/03/04 02:20:35;;;;;;;50.25;31.88;;;;;;;-0.88;100.00;99068.94;2082084;28;20203;-75
2022/03/04 02:21:51;;;;;;;44.42;29.83;;;;;;;-0.86;100.00;99077.41;2073880;28;20282;-75
2022/03/04 02:22:57;;;;;;;47.38;29.55;;;;;;;-0.86;100.00;99078.22;2082427;28;20167;-75
2022/03/04 02:24:02;;;;;;;45.28;29.50;;;;;;;-0.87;100.00;99073.16;2082290;28;20583;-75
2022/03/04 02:25:05;;;;;;;44.40;31.13;;;;;;;-0.84;100.00;99077.97;2082116;28;20613;-75
2022/03/04 02:26:08;;;;;;;48.25;30.90;;;;;;;-0.86;100.00;99075.59;2082010;28;20192;-75
2022/03/04 02:27:09;;;;;;;45.55;30.10;;;;;;;-0.86;100.00;99078.22;2082327;28;20713;-75
2022/03/04 02:28:12;;;;;;;45.83;29.98;;;;;;;-0.88;100.00;99074.19;2090294;28;20219;-75
2022/03/04 02:29:14;;;;;;;41.08;28.85;;;;;;;-0.87;100.00;99076.59;2090202;28;20222;-75
2022/03/04 02:30:17;;;;;;;39.15;28.25;;;;;;;-0.83;100.00;99078.78;2081949;28;20199;-75
2022/03/04 02:31:19;;;;;;;42.55;28.75;;;;;;;-0.85;100.00;99076.38;2082126;28;20230;-76
2022/03/04 02:32:22;;;;;;;43.92;30.45;;;;;;;-0.84;100.00;99075.34;2082751;28;20188;-75
2022/03/04 02:33:23;;;;;;;45.25;29.20;;;;;;;-0.83;100.00;99071.72;2081958;28;20274;-76
2022/03/04 02:34:27;;;;;;;52.97;30.15;;;;;;;-0.82;100.00;99072.50;2082154;28;20625;-76
2022/03/04 02:35:30;;;;;;;45.63;30.08;;;;;;;-0.82;100.00;99062.84;2082680;28;20184;-75
2022/03/04 02:36:33;;;;;;;38.97;28.85;;;;;;;-0.82;100.00;99072.50;2082493;28;20223;-76
2022/03/04 02:37:38;;;;;;;44.08;30.00;;;;;;;-0.83;100.00;99074.34;2082714;28;20196;-76
2022/03/04 02:38:41;;;;;;;44.17;29.65;;;;;;;-0.84;100.00;99064.88;2082077;28;20274;-75
2022/03/04 02:39:42;;;;;;;47.20;30.25;;;;;;;-0.85;100.00;99068.53;2082116;28;20203;-76
2022/03/04 02:40:47;;;;;;;44.88;30.85;;;;;;;-0.83;100.00;99076.16;2081890;28;20224;-76
2022/03/04 02:41:49;;;;;;;46.13;31.05;;;;;;;-0.85;100.00;99073.75;2074102;28;20697;-76
2022/03/04 02:42:53;;;;;;;51.92;32.08;;;;;;;-0.85;100.00;99073.75;2081120;28;20227;-76
2022/03/04 02:43:54;;;;;;;48.20;31.17;;;;;;;-0.86;100.00;99075.59;2081994;28;20204;-76
2022/03/04 02:44:57;;;;;;;49.17;30.50;;;;;;;-0.86;100.00;99074.78;2082694;28;20238;-76
2022/03/04 02:45:58;;;;;;;41.72;30.20;;;;;;;-0.84;100.00;99075.34;2082638;28;20192;-76
2022/03/04 02:47:02;;;;;;;48.60;30.77;;;;;;;-0.84;100.00;99075.34;2082613;28;20180;-76
2022/03/04 02:48:08;;;;;;;42.50;30.73;;;;;;;-0.86;100.00;99085.25;2082616;28;20565;-76
2022/03/04 02:49:10;;;;;;;45.97;31.10;;;;;;;-0.82;100.00;99083.00;2082673;28;20220;-76
2022/03/04 02:50:14;;;;;;;47.00;31.13;;;;;;;-0.83;100.00;99082.19;2082146;28;20200;-76
2022/03/04 02:51:16;;;;;;;43.88;30.13;;;;;;;-0.83;100.00;99084.81;2081464;28;20696;-76
2022/03/04 02:52:19;;;;;;;49.15;30.60;;;;;;;-0.80;100.00;99092.22;2082547;28;20208;-76
2022/03/04 02:53:21;;;;;;;43.95;30.20;;;;;;;-0.73;100.00;99095.56;2081928;28;20210;-76
2022/03/04 02:54:24;;;;;;;44.17;29.95;;;;;;;-0.67;100.00;99099.13;2073862;28;20200;-76
2022/03/04 02:55:26;;;;;;;46.55;30.83;;;;;;;-0.65;100.00;99097.88;2082098;28;20195;-76
2022/03/04 02:56:28;;;;;;;47.05;29.98;;;;;;;-0.68;100.00;99102.75;2082536;28;20184;-76
2022/03/04 02:57:30;;;;;;;40.30;28.95;;;;;;;-0.70;100.00;99102.97;2082553;28;20196;-76
2022/03/04 02:58:32;;;;;;;43.22;29.85;;;;;;;-0.63;100.00;99097.63;2082690;28;20188;-76
2022/03/04 02:59:34;;;;;;;45.33;30.40;;;;;;;-0.61;100.00;99101.66;2081783;28;20204;-76
2022/03/04 03:00:36;;;;;;;46.05;30.45;;;;;;;-0.63;100.00;99101.06;2081931;28;20194;-76
2022/03/04 03:01:37;;;;;;;48.22;31.60;;;;;;;-0.64;100.00;99094.22;2082086;28;20199;-76
2022/03/04 03:02:41;;;;;;;41.75;30.27;;;;;;;-0.57;100.00;99096.75;2081907;28;20195;-76
2022/03/04 03:03:42;;;;;;;45.72;30.13;;;;;;;-0.61;100.00;99096.41;2082543;28;20681;-76
2022/03/04 03:04:45;;;;;;;47.03;31.65;;;;;;;-0.59;100.00;99091.75;2082138;28;20223;-76
2022/03/04 03:05:46;;;;;;;43.85;31.42;;;;;;;-0.63;100.00;99097.63;2074061;28;20295;-76
2022/03/04 03:06:50;;;;;;;49.25;31.33;;;;;;;-0.70;100.00;99099.53;2081601;28;20227;-76
2022/03/04 03:07:51;;;;;;;40.58;31.23;;;;;;;-0.70;100.00;99102.16;2081779;28;20674;-76
2022/03/04 03:08:57;;;;;;;45.75;30.48;;;;;;;-0.71;100.00;99103.19;2081793;28;20241;-76
2022/03/04 03:09:59;;;;;;;44.22;30.58;;;;;;;-0.69;100.00;99096.72;2082456;28;20199;-77
2022/03/04 03:11:02;;;;;;;41.80;29.65;;;;;;;-0.71;100.00;99096.13;2081703;28;20736;-76
2022/03/04 03:12:03;;;;;;;44.55;30.48;;;;;;;-0.70;100.00;99097.72;2081903;28;20199;-76
2022/03/04 03:13:05;;;;;;;45.33;29.83;;;;;;;-0.65;100.00;99102.31;2082541;28;20207;-76
2022/03/04 03:14:08;;;;;;;43.30;29.02;;;;;;;-0.69;100.00;99098.56;2082081;28;20242;-76
2022/03/04 03:15:12;;;;;;;47.90;30.73;;;;;;;-0.71;100.00;99103.97;2081814;28;20543;-77
2022/03/04 03:16:14;;;;;;;42.85;29.75;;;;;;;-0.71;100.00;99096.13;2082404;28;20287;-76
2022/03/04 03:17:17;;;;;;;38.97;29.67;;;;;;;-0.72;100.00;99099.78;2082425;28;20246;-76
2022/03/04 03:18:18;;;;;;;44.47;29.13;;;;;;;-0.70;100.00;99107.41;2081954;28;20208;-76
2022/03/04 03:19:20;;;;;;;45.83;30.35;;;;;;;-0.76;100.00;99103.88;2081672;28;20196;-76
2022/03/04 03:20:21;;;;;;;51.33;31.48;;;;;;;-0.79;100.00;99106.09;2081783;28;20533;-76
2022/03/04 03:21:24;;;;;;;45.85;30.42;;;;;;;-0.83;100.00;99105.75;2081201;28;20753;-76
2022/03/04 03:22:28;;;;;;;40.97;28.88;;;;;;;-0.82;100.00;99109.97;2081784;28;20188;-76
2022/03/04 03:23:31;;;;;;;45.60;29.20;;;;;;;-0.69;100.00;99109.03;2082347;28;20622;-76
2022/03/04 03:24:34;;;;;;;40.88;29.30;;;;;;;-0.71;100.00;99105.81;2082029;28;20238;-76
2022/03/04 03:25:37;;;;;;;49.40;30.88;;;;;;;-0.80;100.00;99107.13;2081748;28;20184;-76
2022/03/04 03:26:38;;;;;;;41.00;28.05;;;;;;;-0.80;100.00;99110.56;2082319;28;20275;-76
2022/03/04 03:27:40;;;;;;;43.35;29.67;;;;;;;-0.80;100.00;99104.50;2081658;28;20203;-76
2022/03/04 03:28:41;;;;;;;42.00;28.65;;;;;;;-0.82;100.00;99109.97;2081813;28;20286;-76
2022/03/04 03:29:44;;;;;;;40.63;29.03;;;;;;;-0.82;100.00;99115.22;2081480;28;20230;-76
2022/03/04 03:30:46;;;;;;;46.17;29.27;;;;;;;-0.86;100.00;99107.00;2081718;28;20441;-76
2022/03/04 03:31:49;;;;;;;43.45;28.95;;;;;;;-0.79;100.00;99109.53;2082277;28;20270;-76
2022/03/04 03:32:56;;;;;;;40.35;29.20;;;;;;;-0.78;100.00;99116.41;2081575;28;20245;-76
2022/03/04 03:34:01;;;;;;;41.97;29.17;;;;;;;-0.80;100.00;99110.56;2081789;28;20250;-76
2022/03/04 03:35:04;;;;;;;43.70;29.00;;;;;;;-0.74;100.00;99114.91;2073516;28;20212;-76
2022/03/04 03:36:07;;;;;;;44.50;30.15;;;;;;;-0.78;100.00;99100.69;2081027;28;20195;-76
2022/03/04 03:37:09;;;;;;;44.50;31.10;;;;;;;-0.73;100.00;99113.91;2082291;28;20221;-76
2022/03/04 03:38:14;;;;;;;40.75;29.00;;;;;;;-0.76;100.00;99113.53;2081404;28;20196;-76
2022/03/04 03:39:21;;;;;;;42.33;29.65;;;;;;;-0.78;100.00;99110.31;2081807;28;20661;-77
2022/03/04 03:40:25;;;;;;;42.17;28.38;;;;;;;-0.79;100.00;99111.34;2081755;28;20168;-76
2022/03/04 03:41:31;;;;;;;42.45;29.27;;;;;;;-0.81;100.00;99114.19;2081819;28;20203;-76
2022/03/04 03:42:34;;;;;;;41.80;28.88;;;;;;;-0.82;100.00;99112.59;2081720;28;20184;-76
2022/03/04 03:43:37;;;;;;;39.90;28.55;;;;;;;-0.84;100.00;99117.25;2082220;28;20188;-76
2022/03/04 03:44:39;;;;;;;40.78;28.58;;;;;;;-0.80;100.00;99118.41;2081486;28;20290;-76
2022/03/04 03:45:41;;;;;;;38.97;28.88;;;;;;;-0.82;100.00;99115.22;2081654;28;20610;-76
2022/03/04 03:46:46;;;;;;;44.38;28.38;;;;;;;-0.84;100.00;99117.25;2081444;28;20294;-76
2022/03/04 03:47:50;;;;;;;41.03;28.30;;;;;;;-0.86;100.00;99112.25;2081509;28;20681;-76
2022/03/04 03:48:53;;;;;;;40.42;27.65;;;;;;;-0.85;100.00;99110.44;2081742;28;20693;-76
2022/03/04 03:49:56;;;;;;;43.83;29.45;;;;;;;-0.78;100.00;99110.31;2081514;28;20290;-76
2022/03/04 03:50:57;;;;;;;41.55;28.85;;;;;;;-0.76;100.00;99114.34;2081661;28;20192;-74
2022/03/04 03:51:59;;;;;;;43.70;30.53;;;;;;;-0.78;100.00;99119.00;2082342;28;20264;-77
2022/03/04 03:53:01;;;;;;;41.95;30.25;;;;;;;-0.80;100.00;99113.16;2082178;28;20195;-76
2022/03/04 03:54:05;;;;;;;46.88;29.50;;;;;;;-0.81;100.00;99111.56;2081740;28;20196;-76
2022/03/04 03:55:07;;;;;;;43.53;30.45;;;;;;;-0.81;100.00;99116.00;2081520;28;20206;-76
2022/03/04 03:56:11;;;;;;;43.03;30.98;;;;;;;-0.87;100.00;99108.03;2082118;28;20222;-76
2022/03/04 03:57:14;;;;;;;47.47;30.13;;;;;;;-0.84;100.00;99112.03;2081750;28;20665;-76
2022/03/04 03:58:16;;;;;;;42.40;30.00;;;;;;;-0.77;100.00;99117.19;2081773;28;20266;-76
2022/03/04 03:59:17;;;;;;;39.55;29.40;;;;;;;-0.79;100.00;99108.72;2082387;28;20696;-76
2022/03/04 04:00:23;;;;;;;45.05;30.70;;;;;;;-0.78;100.00;99108.53;2081455;28;20206;-76
2022/03/04 04:01:25;;;;;;;46.25;31.35;;;;;;;-0.81;100.00;99113.41;2081862;28;20721;-76
2022/03/04 04:02:28;;;;;;;48.42;31.17;;;;;;;-0.82;100.00;99112.59;2081433;28;20266;-76
2022/03/04 04:03:29;;;;;;;48.25;31.38;;;;;;;-0.85;100.00;99105.19;2081640;28;20211;-76
2022/03/04 04:04:34;;;;;;;43.70;30.87;;;;;;;-0.86;100.00;99112.25;2081765;28;20661;-76
2022/03/04 04:05:36;;;;;;;43.22;29.13;;;;;;;-0.87;100.00;99112.44;2073705;28;20234;-76
2022/03/04 04:06:40;;;;;;;42.45;29.42;;;;;;;-0.84;100.00;99106.00;2081160;28;20310;-76
2022/03/04 04:07:41;;;;;;;43.00;30.40;;;;;;;-0.87;100.00;99108.03;2081681;28;20717;-76
2022/03/04 04:08:43;;;;;;;44.15;29.17;;;;;;;-0.79;100.00;99113.97;2081536;28;20188;-76
2022/03/04 04:09:45;;;;;;;45.15;29.90;;;;;;;-0.84;100.00;99106.78;2081725;28;20302;-76
2022/03/04 04:10:47;;;;;;;42.73;29.97;;;;;;;-0.79;100.00;99114.75;2073251;28;20220;-76
2022/03/04 04:11:50;;;;;;;42.75;29.38;;;;;;;-0.81;100.00;99108.94;2081414;28;20203;-76
2022/03/04 04:12:51;;;;;;;42.38;28.98;;;;;;;-0.81;100.00;99116.00;2089317;28;20213;-76
2022/03/04 04:13:52;;;;;;;41.15;29.50;;;;;;;-0.85;100.00;99113.06;2082296;28;20202;-76
2022/03/04 04:14:54;;;;;;;48.97;31.20;;;;;;;-0.83;100.00;99118.06;2089626;28;20191;-76
2022/03/04 04:15:56;;;;;;;42.88;30.85;;;;;;;-0.89;100.00;99111.88;2081317;28;20238;-76
2022/03/04 04:16:58;;;;;;;45.53;29.90;;;;;;;-0.87;100.00;99117.69;2081504;28;20191;-76
2022/03/04 04:18:01;;;;;;;44.42;30.13;;;;;;;-0.85;100.00;99118.28;2082026;28;20720;-76
2022/03/04 04:19:04;;;;;;;48.05;29.65;;;;;;;-0.89;100.00;99114.50;2081414;28;20198;-76
2022/03/04 04:20:06;;;;;;;37.40;28.20;;;;;;;-0.88;100.00;99113.47;2081386;28;20192;-76
2022/03/04 04:21:09;;;;;;;48.60;30.50;;;;;;;-0.89;100.00;99109.25;2080977;28;20274;-76
2022/03/04 04:22:10;;;;;;;45.45;30.90;;;;;;;-0.88;100.00;99116.88;2082117;28;20589;-76
2022/03/04 04:23:12;;;;;;;43.90;30.02;;;;;;;-0.88;100.00;99121.31;2089468;28;20222;-76
2022/03/04 04:24:13;;;;;;;43.92;30.38;;;;;;;-0.87;100.00;99115.06;2089707;28;20672;-76
2022/03/04 04:25:15;;;;;;;48.25;31.35;;;;;;;-0.90;100.00;99112.91;2081849;28;20215;-76
2022/03/04 04:26:16;;;;;;;49.05;30.27;;;;;;;-0.90;100.00;99121.56;2082091;28;20187;-76
2022/03/04 04:27:20;;;;;;;46.33;30.67;;;;;;;-0.84;100.00;99127.75;2081279;28;20199;-76
2022/03/04 04:28:22;;;;;;;44.92;30.33;;;;;;;-0.87;100.00;99122.91;2073012;28;20455;-76
2022/03/04 04:29:24;;;;;;;46.95;30.30;;;;;;;-0.87;100.00;99122.91;2081411;28;20242;-76
2022/03/04 04:30:26;;;;;;;43.92;30.58;;;;;;;-0.85;100.00;99126.16;2082050;28;20252;-76
2022/03/04 04:31:28;;;;;;;50.17;30.65;;;;;;;-0.84;100.00;99121.69;2082656;28;20575;-76
2022/03/04 04:32:29;;;;;;;44.03;30.33;;;;;;;-0.87;100.00;99122.91;2083041;28;20192;-76
2022/03/04 04:33:35;;;;;;;44.97;30.87;;;;;;;-0.87;100.00;99122.91;2083499;28;20227;-76
2022/03/04 04:34:37;;;;;;;43.55;29.67;;;;;;;-0.86;100.00;99125.34;2083039;28;20237;-76
2022/03/04 04:35:38;;;;;;;44.10;29.67;;;;;;;-0.86;100.00;99124.53;2083077;28;20218;-76
2022/03/04 04:36:40;;;;;;;43.88;30.27;;;;;;;-0.86;100.00;99121.94;2082914;28;20278;-76
2022/03/04 04:37:42;;;;;;;44.50;30.50;;;;;;;-0.86;100.00;99124.53;2083058;28;20192;-76
2022/03/04 04:38:45;;;;;;;44.20;29.67;;;;;;;-0.84;100.00;99119.88;2090943;28;20705;-76
2022/03/04 04:39:48;;;;;;;44.90;30.48;;;;;;;-0.84;100.00;99122.50;2083151;28;20214;-76
2022/03/04 04:40:51;;;;;;;44.58;30.52;;;;;;;-0.87;100.00;99123.75;2083041;28;20190;-76
2022/03/04 04:41:55;;;;;;;49.47;31.38;;;;;;;-0.83;100.00;99129.34;2083606;28;20702;-76
2022/03/04 04:42:58;;;;;;;45.70;29.42;;;;;;;-0.78;100.00;99124.25;2082918;28;20676;-76
2022/03/04 04:44:00;;;;;;;46.75;31.88;;;;;;;-0.80;100.00;99128.09;2074879;28;20214;-76
2022/03/04 04:45:02;;;;;;;43.42;30.10;;;;;;;-0.83;100.00;99125.91;2074699;28;20212;-76
2022/03/04 04:46:04;;;;;;;47.60;29.73;;;;;;;-0.85;100.00;99120.91;2083037;28;20196;-76